sensor_id;sensor_type;location;lat;lon;timestamp;P1;durP1;ratioP1;P2;durP2;ratioP2
30020;SDS011;16861;52.294;7.760;2022-09-14T00:00:09;3.17;;;0.80;;
30020;SDS011;16861;52.294;7.760;2022-09-14T00:02:36;4.35;;;0.90;;
30020;SDS011;16861;52.294;7.760;2022-09-14T00:05:03;2.50;;;0.80;;
30020;SDS011;16861;52.294;7.760;2022-09-14T00:07:30;3.22;;;0.80;;
30020;SDS011;16861;52.294;7.760;2022-09-14T00:09:56;2.15;;;0.80;;
30020;SDS011;16861;52.294;7.760;2022-09-14T00:12:23;1.85;;;0.80;;
30020;SDS011;16861;52.294;7.760;2022-09-14T00:14:50;5.85;;;0.80;;
30020;SDS011;16861;52.294;7.760;2022-09-14T00:17:16;2.83;;;0.73;;
30020;SDS011;16861;52.294;7.760;2022-09-14T00:19:44;2.70;;;0.75;;
30020;SDS011;16861;52.294;7.760;2022-09-14T00:22:10;2.50;;;0.75;;
30020;SDS011;16861;52.294;7.760;2022-09-14T00:24:37;4.57;;;0.77;;
30020;SDS011;16861;52.294;7.760;2022-09-14T00:27:03;5.20;;;0.70;;
30020;SDS011;16861;52.294;7.760;2022-09-14T00:29:30;4.15;;;0.55;;
30020;SDS011;16861;52.294;7.760;2022-09-14T00:31:57;2.55;;;0.73;;
30020;SDS011;16861;52.294;7.760;2022-09-14T00:34:23;3.28;;;0.80;;
30020;SDS011;16861;52.294;7.760;2022-09-14T00:36:50;5.93;;;0.90;;
30020;SDS011;16861;52.294;7.760;2022-09-14T00:39:18;1.75;;;0.57;;
30020;SDS011;16861;52.294;7.760;2022-09-14T00:41:49;4.05;;;0.80;;
30020;SDS011;16861;52.294;7.760;2022-09-14T00:46:43;2.70;;;0.88;;
30020;SDS011;16861;52.294;7.760;2022-09-14T00:49:13;5.32;;;0.82;;
30020;SDS011;16861;52.294;7.760;2022-09-14T00:51:51;2.50;;;0.60;;
30020;SDS011;16861;52.294;7.760;2022-09-14T00:54:24;4.32;;;0.82;;
30020;SDS011;16861;52.294;7.760;2022-09-14T00:56:51;5.35;;;0.60;;
30020;SDS011;16861;52.294;7.760;2022-09-14T00:59:20;2.85;;;0.63;;
30020;SDS011;16861;52.294;7.760;2022-09-14T01:01:49;3.33;;;0.68;;
30020;SDS011;16861;52.294;7.760;2022-09-14T01:04:16;2.80;;;0.82;;
30020;SDS011;16861;52.294;7.760;2022-09-14T01:06:48;2.35;;;0.63;;
30020;SDS011;16861;52.294;7.760;2022-09-14T01:15:08;4.43;;;1.10;;
30020;SDS011;16861;52.294;7.760;2022-09-14T01:20:25;4.55;;;1.10;;
30020;SDS011;16861;52.294;7.760;2022-09-14T01:25:33;3.33;;;0.85;;
30020;SDS011;16861;52.294;7.760;2022-09-14T01:28:07;1.17;;;0.47;;
30020;SDS011;16861;52.294;7.760;2022-09-14T01:30:41;3.30;;;0.85;;
30020;SDS011;16861;52.294;7.760;2022-09-14T01:33:11;2.33;;;0.50;;
30020;SDS011;16861;52.294;7.760;2022-09-14T01:35:50;2.17;;;0.55;;
30020;SDS011;16861;52.294;7.760;2022-09-14T01:38:25;4.07;;;0.70;;
30020;SDS011;16861;52.294;7.760;2022-09-14T01:40:56;3.88;;;0.57;;
30020;SDS011;16861;52.294;7.760;2022-09-14T01:43:28;3.20;;;0.73;;
30020;SDS011;16861;52.294;7.760;2022-09-14T01:46:03;1.67;;;0.57;;
30020;SDS011;16861;52.294;7.760;2022-09-14T01:48:36;4.78;;;0.70;;
30020;SDS011;16861;52.294;7.760;2022-09-14T01:51:12;2.38;;;0.57;;
30020;SDS011;16861;52.294;7.760;2022-09-14T01:53:46;2.10;;;0.73;;
30020;SDS011;16861;52.294;7.760;2022-09-14T01:56:19;1.23;;;0.57;;
30020;SDS011;16861;52.294;7.760;2022-09-14T01:58:53;2.70;;;0.77;;
30020;SDS011;16861;52.294;7.760;2022-09-14T02:01:28;3.65;;;0.93;;
30020;SDS011;16861;52.294;7.760;2022-09-14T02:04:03;2.05;;;0.43;;
30020;SDS011;16861;52.294;7.760;2022-09-14T02:06:44;3.05;;;0.70;;
30020;SDS011;16861;52.294;7.760;2022-09-14T02:09:14;1.98;;;0.60;;
30020;SDS011;16861;52.294;7.760;2022-09-14T02:11:45;2.83;;;0.95;;
30020;SDS011;16861;52.294;7.760;2022-09-14T02:14:12;2.78;;;0.85;;
30020;SDS011;16861;52.294;7.760;2022-09-14T02:16:38;2.25;;;0.85;;
30020;SDS011;16861;52.294;7.760;2022-09-14T02:19:08;5.32;;;0.68;;
30020;SDS011;16861;52.294;7.760;2022-09-14T02:21:35;6.05;;;0.80;;
30020;SDS011;16861;52.294;7.760;2022-09-14T02:24:03;4.40;;;0.68;;
30020;SDS011;16861;52.294;7.760;2022-09-14T02:26:30;0.95;;;0.57;;
30020;SDS011;16861;52.294;7.760;2022-09-14T02:28:57;1.60;;;0.50;;
30020;SDS011;16861;52.294;7.760;2022-09-14T02:34:02;2.13;;;0.50;;
30020;SDS011;16861;52.294;7.760;2022-09-14T02:39:32;1.63;;;0.50;;
30020;SDS011;16861;52.294;7.760;2022-09-14T02:44:49;4.10;;;0.63;;
30020;SDS011;16861;52.294;7.760;2022-09-14T02:47:29;4.68;;;0.75;;
30020;SDS011;16861;52.294;7.760;2022-09-14T02:50:38;1.67;;;0.50;;
30020;SDS011;16861;52.294;7.760;2022-09-14T02:53:15;4.00;;;0.40;;
30020;SDS011;16861;52.294;7.760;2022-09-14T02:55:48;3.22;;;0.57;;
30020;SDS011;16861;52.294;7.760;2022-09-14T02:58:19;2.15;;;0.60;;
30020;SDS011;16861;52.294;7.760;2022-09-14T03:00:46;6.45;;;0.93;;
30020;SDS011;16861;52.294;7.760;2022-09-14T03:03:15;2.13;;;0.77;;
30020;SDS011;16861;52.294;7.760;2022-09-14T03:05:43;4.68;;;0.70;;
30020;SDS011;16861;52.294;7.760;2022-09-14T03:08:10;3.42;;;0.80;;
30020;SDS011;16861;52.294;7.760;2022-09-14T03:10:39;2.53;;;0.60;;
30020;SDS011;16861;52.294;7.760;2022-09-14T03:13:08;3.80;;;0.70;;
30020;SDS011;16861;52.294;7.760;2022-09-14T03:15:35;8.90;;;0.88;;
30020;SDS011;16861;52.294;7.760;2022-09-14T03:18:01;2.70;;;0.70;;
30020;SDS011;16861;52.294;7.760;2022-09-14T03:20:28;2.75;;;0.88;;
30020;SDS011;16861;52.294;7.760;2022-09-14T03:22:57;2.45;;;0.52;;
30020;SDS011;16861;52.294;7.760;2022-09-14T03:25:24;1.65;;;0.60;;
30020;SDS011;16861;52.294;7.760;2022-09-14T03:27:53;3.85;;;0.70;;
30020;SDS011;16861;52.294;7.760;2022-09-14T03:30:23;1.55;;;0.40;;
30020;SDS011;16861;52.294;7.760;2022-09-14T03:32:50;2.63;;;0.50;;
30020;SDS011;16861;52.294;7.760;2022-09-14T03:35:17;1.42;;;0.60;;
30020;SDS011;16861;52.294;7.760;2022-09-14T03:37:44;1.77;;;0.70;;
30020;SDS011;16861;52.294;7.760;2022-09-14T03:40:12;3.85;;;0.70;;
30020;SDS011;16861;52.294;7.760;2022-09-14T03:42:47;2.95;;;0.70;;
30020;SDS011;16861;52.294;7.760;2022-09-14T03:45:15;2.53;;;0.60;;
30020;SDS011;16861;52.294;7.760;2022-09-14T03:47:43;4.60;;;0.50;;
30020;SDS011;16861;52.294;7.760;2022-09-14T03:50:10;4.93;;;1.00;;
30020;SDS011;16861;52.294;7.760;2022-09-14T03:52:38;4.95;;;0.73;;
30020;SDS011;16861;52.294;7.760;2022-09-14T03:55:05;3.03;;;0.60;;
30020;SDS011;16861;52.294;7.760;2022-09-14T03:57:34;7.20;;;0.63;;
30020;SDS011;16861;52.294;7.760;2022-09-14T04:00:01;7.72;;;0.95;;
30020;SDS011;16861;52.294;7.760;2022-09-14T04:02:29;3.50;;;0.88;;
30020;SDS011;16861;52.294;7.760;2022-09-14T04:04:56;2.50;;;0.77;;
30020;SDS011;16861;52.294;7.760;2022-09-14T04:07:22;3.35;;;0.40;;
30020;SDS011;16861;52.294;7.760;2022-09-14T04:09:49;0.88;;;0.40;;
30020;SDS011;16861;52.294;7.760;2022-09-14T04:12:15;2.80;;;0.70;;
30020;SDS011;16861;52.294;7.760;2022-09-14T04:14:42;4.35;;;0.57;;
30020;SDS011;16861;52.294;7.760;2022-09-14T04:17:08;3.88;;;0.70;;
30020;SDS011;16861;52.294;7.760;2022-09-14T04:19:35;1.58;;;0.50;;
30020;SDS011;16861;52.294;7.760;2022-09-14T04:22:05;4.28;;;0.65;;
30020;SDS011;16861;52.294;7.760;2022-09-14T04:24:32;3.13;;;0.50;;
30020;SDS011;16861;52.294;7.760;2022-09-14T04:26:59;3.17;;;0.65;;
30020;SDS011;16861;52.294;7.760;2022-09-14T04:29:25;1.48;;;0.57;;
30020;SDS011;16861;52.294;7.760;2022-09-14T04:31:52;3.58;;;0.80;;
30020;SDS011;16861;52.294;7.760;2022-09-14T04:34:18;5.55;;;0.70;;
30020;SDS011;16861;52.294;7.760;2022-09-14T04:36:45;3.47;;;0.68;;
30020;SDS011;16861;52.294;7.760;2022-09-14T04:39:12;3.58;;;0.52;;
30020;SDS011;16861;52.294;7.760;2022-09-14T04:41:41;3.50;;;0.77;;
30020;SDS011;16861;52.294;7.760;2022-09-14T04:44:09;2.03;;;0.70;;
30020;SDS011;16861;52.294;7.760;2022-09-14T04:46:35;2.03;;;0.57;;
30020;SDS011;16861;52.294;7.760;2022-09-14T04:49:11;6.10;;;1.00;;
30020;SDS011;16861;52.294;7.760;2022-09-14T04:51:38;3.75;;;0.70;;
30020;SDS011;16861;52.294;7.760;2022-09-14T04:54:05;1.33;;;0.80;;
30020;SDS011;16861;52.294;7.760;2022-09-14T04:56:33;2.33;;;0.68;;
30020;SDS011;16861;52.294;7.760;2022-09-14T04:59:02;4.93;;;0.80;;
30020;SDS011;16861;52.294;7.760;2022-09-14T05:01:40;1.73;;;0.70;;
30020;SDS011;16861;52.294;7.760;2022-09-14T05:04:09;3.33;;;0.90;;
30020;SDS011;16861;52.294;7.760;2022-09-14T05:06:37;4.15;;;1.20;;
30020;SDS011;16861;52.294;7.760;2022-09-14T05:09:06;6.25;;;1.25;;
30020;SDS011;16861;52.294;7.760;2022-09-14T05:11:35;4.72;;;0.88;;
30020;SDS011;16861;52.294;7.760;2022-09-14T05:14:02;5.68;;;1.00;;
30020;SDS011;16861;52.294;7.760;2022-09-14T05:16:30;4.70;;;1.13;;
30020;SDS011;16861;52.294;7.760;2022-09-14T05:19:02;5.18;;;1.08;;
30020;SDS011;16861;52.294;7.760;2022-09-14T05:21:32;6.13;;;0.90;;
30020;SDS011;16861;52.294;7.760;2022-09-14T05:24:04;2.35;;;0.80;;
30020;SDS011;16861;52.294;7.760;2022-09-14T05:26:33;2.15;;;0.80;;
30020;SDS011;16861;52.294;7.760;2022-09-14T05:29:00;3.38;;;1.20;;
30020;SDS011;16861;52.294;7.760;2022-09-14T05:31:28;7.32;;;1.38;;
30020;SDS011;16861;52.294;7.760;2022-09-14T05:33:56;4.40;;;1.27;;
30020;SDS011;16861;52.294;7.760;2022-09-14T05:36:23;3.67;;;1.10;;
30020;SDS011;16861;52.294;7.760;2022-09-14T05:38:51;1.65;;;0.82;;
30020;SDS011;16861;52.294;7.760;2022-09-14T05:41:17;3.50;;;1.05;;
30020;SDS011;16861;52.294;7.760;2022-09-14T05:43:44;2.13;;;1.00;;
30020;SDS011;16861;52.294;7.760;2022-09-14T05:46:12;3.33;;;0.90;;
30020;SDS011;16861;52.294;7.760;2022-09-14T05:48:40;2.15;;;0.80;;
30020;SDS011;16861;52.294;7.760;2022-09-14T05:51:09;3.45;;;0.98;;
30020;SDS011;16861;52.294;7.760;2022-09-14T05:53:41;1.95;;;0.63;;
30020;SDS011;16861;52.294;7.760;2022-09-14T05:56:09;5.15;;;1.38;;
30020;SDS011;16861;52.294;7.760;2022-09-14T05:58:38;4.00;;;1.10;;
30020;SDS011;16861;52.294;7.760;2022-09-14T06:01:06;3.15;;;1.05;;
30020;SDS011;16861;52.294;7.760;2022-09-14T06:03:37;6.07;;;1.08;;
30020;SDS011;16861;52.294;7.760;2022-09-14T06:06:04;3.78;;;1.10;;
30020;SDS011;16861;52.294;7.760;2022-09-14T06:08:32;5.53;;;0.93;;
30020;SDS011;16861;52.294;7.760;2022-09-14T06:11:06;9.48;;;1.58;;
30020;SDS011;16861;52.294;7.760;2022-09-14T06:13:35;5.32;;;1.50;;
30020;SDS011;16861;52.294;7.760;2022-09-14T06:16:03;5.65;;;1.35;;
30020;SDS011;16861;52.294;7.760;2022-09-14T06:18:34;4.15;;;1.25;;
30020;SDS011;16861;52.294;7.760;2022-09-14T06:21:02;4.53;;;0.70;;
30020;SDS011;16861;52.294;7.760;2022-09-14T06:23:29;2.47;;;1.00;;
30020;SDS011;16861;52.294;7.760;2022-09-14T06:25:57;4.32;;;1.05;;
30020;SDS011;16861;52.294;7.760;2022-09-14T06:28:28;4.15;;;1.02;;
30020;SDS011;16861;52.294;7.760;2022-09-14T06:30:56;3.47;;;1.00;;
30020;SDS011;16861;52.294;7.760;2022-09-14T06:33:24;3.30;;;1.17;;
30020;SDS011;16861;52.294;7.760;2022-09-14T06:36:01;7.40;;;1.17;;
30020;SDS011;16861;52.294;7.760;2022-09-14T06:38:37;6.50;;;1.73;;
30020;SDS011;16861;52.294;7.760;2022-09-14T06:41:06;3.05;;;1.50;;
30020;SDS011;16861;52.294;7.760;2022-09-14T06:43:35;4.25;;;1.58;;
30020;SDS011;16861;52.294;7.760;2022-09-14T06:46:13;3.63;;;1.15;;
30020;SDS011;16861;52.294;7.760;2022-09-14T06:48:46;8.25;;;1.80;;
30020;SDS011;16861;52.294;7.760;2022-09-14T06:53:49;3.45;;;1.40;;
30020;SDS011;16861;52.294;7.760;2022-09-14T06:56:17;7.10;;;2.00;;
30020;SDS011;16861;52.294;7.760;2022-09-14T06:58:43;5.75;;;1.95;;
30020;SDS011;16861;52.294;7.760;2022-09-14T07:01:11;6.38;;;1.85;;
30020;SDS011;16861;52.294;7.760;2022-09-14T07:03:42;4.20;;;1.73;;
30020;SDS011;16861;52.294;7.760;2022-09-14T07:06:11;4.72;;;1.80;;
30020;SDS011;16861;52.294;7.760;2022-09-14T07:08:39;3.83;;;1.55;;
30020;SDS011;16861;52.294;7.760;2022-09-14T07:11:06;3.90;;;1.80;;
30020;SDS011;16861;52.294;7.760;2022-09-14T07:13:34;3.38;;;1.80;;
30020;SDS011;16861;52.294;7.760;2022-09-14T07:16:01;7.38;;;1.70;;
30020;SDS011;16861;52.294;7.760;2022-09-14T07:18:28;9.55;;;1.85;;
30020;SDS011;16861;52.294;7.760;2022-09-14T07:23:37;4.18;;;0.98;;
30020;SDS011;16861;52.294;7.760;2022-09-14T07:26:06;5.60;;;1.60;;
30020;SDS011;16861;52.294;7.760;2022-09-14T07:28:35;9.05;;;1.40;;
30020;SDS011;16861;52.294;7.760;2022-09-14T07:31:03;4.95;;;1.30;;
30020;SDS011;16861;52.294;7.760;2022-09-14T07:33:30;6.38;;;1.38;;
30020;SDS011;16861;52.294;7.760;2022-09-14T07:36:05;10.73;;;1.40;;
30020;SDS011;16861;52.294;7.760;2022-09-14T07:38:32;4.65;;;1.10;;
30020;SDS011;16861;52.294;7.760;2022-09-14T07:41:17;5.88;;;1.15;;
30020;SDS011;16861;52.294;7.760;2022-09-14T07:43:52;4.50;;;1.05;;
30020;SDS011;16861;52.294;7.760;2022-09-14T07:46:22;5.53;;;1.00;;
30020;SDS011;16861;52.294;7.760;2022-09-14T07:48:56;4.97;;;1.33;;
30020;SDS011;16861;52.294;7.760;2022-09-14T07:51:24;3.83;;;1.13;;
30020;SDS011;16861;52.294;7.760;2022-09-14T07:53:52;5.85;;;1.38;;
30020;SDS011;16861;52.294;7.760;2022-09-14T07:56:19;5.97;;;1.55;;
30020;SDS011;16861;52.294;7.760;2022-09-14T07:58:47;6.30;;;1.50;;
30020;SDS011;16861;52.294;7.760;2022-09-14T08:01:19;2.55;;;1.10;;
30020;SDS011;16861;52.294;7.760;2022-09-14T08:03:47;3.45;;;1.23;;
30020;SDS011;16861;52.294;7.760;2022-09-14T08:06:15;4.18;;;1.00;;
30020;SDS011;16861;52.294;7.760;2022-09-14T08:08:45;4.72;;;1.20;;
30020;SDS011;16861;52.294;7.760;2022-09-14T08:11:14;5.47;;;1.10;;
30020;SDS011;16861;52.294;7.760;2022-09-14T08:13:42;4.93;;;1.10;;
30020;SDS011;16861;52.294;7.760;2022-09-14T08:16:11;5.28;;;1.20;;
30020;SDS011;16861;52.294;7.760;2022-09-14T08:18:38;4.45;;;1.15;;
30020;SDS011;16861;52.294;7.760;2022-09-14T08:21:09;3.53;;;0.82;;
30020;SDS011;16861;52.294;7.760;2022-09-14T08:23:37;7.32;;;1.17;;
30020;SDS011;16861;52.294;7.760;2022-09-14T08:26:06;5.60;;;0.95;;
30020;SDS011;16861;52.294;7.760;2022-09-14T08:28:35;3.42;;;1.00;;
30020;SDS011;16861;52.294;7.760;2022-09-14T08:31:06;4.20;;;1.20;;
30020;SDS011;16861;52.294;7.760;2022-09-14T08:33:36;4.35;;;1.00;;
30020;SDS011;16861;52.294;7.760;2022-09-14T08:36:06;6.70;;;1.20;;
30020;SDS011;16861;52.294;7.760;2022-09-14T08:38:34;4.53;;;0.88;;
30020;SDS011;16861;52.294;7.760;2022-09-14T08:43:43;4.85;;;1.05;;
30020;SDS011;16861;52.294;7.760;2022-09-14T08:46:13;3.85;;;1.10;;
30020;SDS011;16861;52.294;7.760;2022-09-14T08:48:47;5.90;;;1.17;;
30020;SDS011;16861;52.294;7.760;2022-09-14T08:51:14;5.82;;;1.50;;
30020;SDS011;16861;52.294;7.760;2022-09-14T08:53:43;6.70;;;1.45;;
30020;SDS011;16861;52.294;7.760;2022-09-14T08:56:23;5.10;;;1.70;;
30020;SDS011;16861;52.294;7.760;2022-09-14T09:02:01;3.70;;;1.40;;
30020;SDS011;16861;52.294;7.760;2022-09-14T09:05:06;6.53;;;1.63;;
30020;SDS011;16861;52.294;7.760;2022-09-14T09:07:59;6.50;;;1.58;;
30020;SDS011;16861;52.294;7.760;2022-09-14T09:10:31;4.78;;;1.42;;
30020;SDS011;16861;52.294;7.760;2022-09-14T09:12:59;5.03;;;2.00;;
30020;SDS011;16861;52.294;7.760;2022-09-14T09:15:33;3.65;;;0.93;;
30020;SDS011;16861;52.294;7.760;2022-09-14T09:18:06;3.97;;;1.20;;
30020;SDS011;16861;52.294;7.760;2022-09-14T09:20:47;3.17;;;0.90;;
30020;SDS011;16861;52.294;7.760;2022-09-14T09:23:18;5.03;;;0.93;;
30020;SDS011;16861;52.294;7.760;2022-09-14T09:28:12;4.00;;;1.08;;
30020;SDS011;16861;52.294;7.760;2022-09-14T09:30:41;3.40;;;1.25;;
30020;SDS011;16861;52.294;7.760;2022-09-14T09:33:14;4.75;;;1.00;;
30020;SDS011;16861;52.294;7.760;2022-09-14T09:35:46;4.28;;;1.27;;
30020;SDS011;16861;52.294;7.760;2022-09-14T09:38:16;4.95;;;1.23;;
30020;SDS011;16861;52.294;7.760;2022-09-14T09:40:46;4.80;;;1.00;;
30020;SDS011;16861;52.294;7.760;2022-09-14T09:43:17;4.80;;;1.70;;
30020;SDS011;16861;52.294;7.760;2022-09-14T09:46:04;4.18;;;1.52;;
30020;SDS011;16861;52.294;7.760;2022-09-14T09:48:40;3.63;;;1.30;;
30020;SDS011;16861;52.294;7.760;2022-09-14T09:51:13;5.05;;;1.13;;
30020;SDS011;16861;52.294;7.760;2022-09-14T09:53:59;3.70;;;1.10;;
30020;SDS011;16861;52.294;7.760;2022-09-14T10:07:25;4.85;;;1.70;;
30020;SDS011;16861;52.294;7.760;2022-09-14T10:09:56;4.82;;;1.48;;
30020;SDS011;16861;52.294;7.760;2022-09-14T10:12:33;4.78;;;1.30;;
30020;SDS011;16861;52.294;7.760;2022-09-14T10:15:03;5.32;;;1.55;;
30020;SDS011;16861;52.294;7.760;2022-09-14T10:17:30;4.55;;;1.15;;
30020;SDS011;16861;52.294;7.760;2022-09-14T10:19:57;4.68;;;1.33;;
30020;SDS011;16861;52.294;7.760;2022-09-14T10:30:11;7.97;;;1.73;;
30020;SDS011;16861;52.294;7.760;2022-09-14T10:32:44;6.80;;;1.73;;
30020;SDS011;16861;52.294;7.760;2022-09-14T10:35:22;4.50;;;1.58;;
30020;SDS011;16861;52.294;7.760;2022-09-14T10:38:13;4.65;;;1.50;;
30020;SDS011;16861;52.294;7.760;2022-09-14T10:40:57;5.03;;;1.30;;
30020;SDS011;16861;52.294;7.760;2022-09-14T10:43:55;4.00;;;1.20;;
30020;SDS011;16861;52.294;7.760;2022-09-14T10:46:52;5.32;;;1.38;;
30020;SDS011;16861;52.294;7.760;2022-09-14T10:49:50;5.40;;;1.58;;
30020;SDS011;16861;52.294;7.760;2022-09-14T10:52:32;4.97;;;1.38;;
30020;SDS011;16861;52.294;7.760;2022-09-14T10:55:20;6.28;;;1.88;;
30020;SDS011;16861;52.294;7.760;2022-09-14T11:00:35;4.15;;;1.23;;
30020;SDS011;16861;52.294;7.760;2022-09-14T11:06:00;3.00;;;1.17;;
30020;SDS011;16861;52.294;7.760;2022-09-14T11:08:59;6.70;;;1.35;;
30020;SDS011;16861;52.294;7.760;2022-09-14T11:11:35;5.00;;;1.35;;
30020;SDS011;16861;52.294;7.760;2022-09-14T11:14:32;4.55;;;1.50;;
30020;SDS011;16861;52.294;7.760;2022-09-14T11:22:20;3.80;;;1.40;;
30020;SDS011;16861;52.294;7.760;2022-09-14T11:25:52;3.45;;;1.23;;
30020;SDS011;16861;52.294;7.760;2022-09-14T11:27:54;3.08;;;0.80;;
30020;SDS011;16861;52.294;7.760;2022-09-14T11:30:36;7.15;;;1.35;;
30020;SDS011;16861;52.294;7.760;2022-09-14T11:33:11;3.83;;;1.27;;
30020;SDS011;16861;52.294;7.760;2022-09-14T11:35:50;3.97;;;1.30;;
30020;SDS011;16861;52.294;7.760;2022-09-14T11:38:31;2.97;;;1.17;;
30020;SDS011;16861;52.294;7.760;2022-09-14T11:41:18;4.35;;;1.10;;
30020;SDS011;16861;52.294;7.760;2022-09-14T11:44:12;6.68;;;1.50;;
30020;SDS011;16861;52.294;7.760;2022-09-14T11:47:18;6.97;;;1.60;;
30020;SDS011;16861;52.294;7.760;2022-09-14T11:52:31;6.10;;;1.80;;
30020;SDS011;16861;52.294;7.760;2022-09-14T11:55:00;4.20;;;1.10;;
30020;SDS011;16861;52.294;7.760;2022-09-14T11:57:28;8.32;;;1.60;;
30020;SDS011;16861;52.294;7.760;2022-09-14T12:00:01;7.85;;;1.10;;
30020;SDS011;16861;52.294;7.760;2022-09-14T12:02:57;3.25;;;1.10;;
30020;SDS011;16861;52.294;7.760;2022-09-14T12:05:46;4.88;;;1.45;;
30020;SDS011;16861;52.294;7.760;2022-09-14T12:11:03;5.05;;;1.20;;
30020;SDS011;16861;52.294;7.760;2022-09-14T12:13:30;5.43;;;1.10;;
30020;SDS011;16861;52.294;7.760;2022-09-14T12:16:04;4.65;;;1.45;;
30020;SDS011;16861;52.294;7.760;2022-09-14T12:18:34;6.10;;;1.33;;
30020;SDS011;16861;52.294;7.760;2022-09-14T12:21:03;2.80;;;1.20;;
30020;SDS011;16861;52.294;7.760;2022-09-14T12:23:43;6.15;;;1.30;;
30020;SDS011;16861;52.294;7.760;2022-09-14T12:28:42;7.68;;;1.30;;
30020;SDS011;16861;52.294;7.760;2022-09-14T12:34:14;4.93;;;1.10;;
30020;SDS011;16861;52.294;7.760;2022-09-14T12:39:22;5.78;;;1.40;;
30020;SDS011;16861;52.294;7.760;2022-09-14T12:44:36;6.45;;;1.50;;
30020;SDS011;16861;52.294;7.760;2022-09-14T12:50:17;4.47;;;1.17;;
30020;SDS011;16861;52.294;7.760;2022-09-14T12:55:37;5.03;;;1.48;;
30020;SDS011;16861;52.294;7.760;2022-09-14T12:58:08;4.47;;;1.40;;
30020;SDS011;16861;52.294;7.760;2022-09-14T13:00:52;3.92;;;1.60;;
30020;SDS011;16861;52.294;7.760;2022-09-14T13:03:25;4.10;;;1.33;;
30020;SDS011;16861;52.294;7.760;2022-09-14T13:06:09;4.30;;;1.42;;
30020;SDS011;16861;52.294;7.760;2022-09-14T13:08:37;5.38;;;1.42;;
30020;SDS011;16861;52.294;7.760;2022-09-14T13:11:08;3.55;;;1.05;;
30020;SDS011;16861;52.294;7.760;2022-09-14T13:13:35;6.55;;;1.23;;
30020;SDS011;16861;52.294;7.760;2022-09-14T13:16:02;4.20;;;1.23;;
30020;SDS011;16861;52.294;7.760;2022-09-14T13:18:36;7.50;;;1.50;;
30020;SDS011;16861;52.294;7.760;2022-09-14T13:21:15;3.55;;;1.50;;
30020;SDS011;16861;52.294;7.760;2022-09-14T13:23:46;4.28;;;1.42;;
30020;SDS011;16861;52.294;7.760;2022-09-14T13:26:15;5.22;;;1.65;;
30020;SDS011;16861;52.294;7.760;2022-09-14T13:28:43;6.05;;;1.73;;
30020;SDS011;16861;52.294;7.760;2022-09-14T13:31:13;18.55;;;1.85;;
30020;SDS011;16861;52.294;7.760;2022-09-14T13:33:47;4.80;;;1.67;;
30020;SDS011;16861;52.294;7.760;2022-09-14T13:38:47;4.30;;;1.52;;
30020;SDS011;16861;52.294;7.760;2022-09-14T13:41:15;3.72;;;1.58;;
30020;SDS011;16861;52.294;7.760;2022-09-14T13:43:43;4.90;;;1.60;;
30020;SDS011;16861;52.294;7.760;2022-09-14T13:46:12;5.05;;;1.88;;
30020;SDS011;16861;52.294;7.760;2022-09-14T13:48:45;6.10;;;1.73;;
30020;SDS011;16861;52.294;7.760;2022-09-14T13:51:12;5.07;;;1.60;;
30020;SDS011;16861;52.294;7.760;2022-09-14T13:58:45;5.82;;;1.75;;
30020;SDS011;16861;52.294;7.760;2022-09-14T14:01:13;3.40;;;1.25;;
30020;SDS011;16861;52.294;7.760;2022-09-14T14:03:50;5.80;;;1.05;;
30020;SDS011;16861;52.294;7.760;2022-09-14T14:06:21;4.05;;;1.67;;
30020;SDS011;16861;52.294;7.760;2022-09-14T14:09:02;5.60;;;1.40;;
30020;SDS011;16861;52.294;7.760;2022-09-14T14:11:33;5.70;;;1.70;;
30020;SDS011;16861;52.294;7.760;2022-09-14T14:19:37;3.83;;;1.40;;
30020;SDS011;16861;52.294;7.760;2022-09-14T14:24:41;3.25;;;1.42;;
30020;SDS011;16861;52.294;7.760;2022-09-14T14:27:30;3.28;;;1.20;;
30020;SDS011;16861;52.294;7.760;2022-09-14T14:30:01;3.30;;;1.20;;
30020;SDS011;16861;52.294;7.760;2022-09-14T14:32:39;3.70;;;1.60;;
30020;SDS011;16861;52.294;7.760;2022-09-14T14:35:16;6.32;;;1.67;;
30020;SDS011;16861;52.294;7.760;2022-09-14T14:37:45;3.58;;;1.20;;
30020;SDS011;16861;52.294;7.760;2022-09-14T14:40:13;4.05;;;1.17;;
30020;SDS011;16861;52.294;7.760;2022-09-14T14:42:41;3.30;;;1.42;;
30020;SDS011;16861;52.294;7.760;2022-09-14T14:45:12;3.88;;;1.38;;
30020;SDS011;16861;52.294;7.760;2022-09-14T14:47:52;4.90;;;1.42;;
30020;SDS011;16861;52.294;7.760;2022-09-14T14:50:24;4.75;;;1.40;;
30020;SDS011;16861;52.294;7.760;2022-09-14T14:52:52;3.65;;;1.30;;
30020;SDS011;16861;52.294;7.760;2022-09-14T14:55:20;6.15;;;1.33;;
30020;SDS011;16861;52.294;7.760;2022-09-14T14:57:47;4.00;;;1.50;;
30020;SDS011;16861;52.294;7.760;2022-09-14T15:00:16;5.85;;;1.45;;
30020;SDS011;16861;52.294;7.760;2022-09-14T15:02:45;4.53;;;1.33;;
30020;SDS011;16861;52.294;7.760;2022-09-14T15:05:12;5.45;;;1.50;;
30020;SDS011;16861;52.294;7.760;2022-09-14T15:07:39;3.60;;;1.23;;
30020;SDS011;16861;52.294;7.760;2022-09-14T15:10:06;6.55;;;1.70;;
30020;SDS011;16861;52.294;7.760;2022-09-14T15:12:36;4.38;;;1.65;;
30020;SDS011;16861;52.294;7.760;2022-09-14T15:15:03;6.57;;;1.70;;
30020;SDS011;16861;52.294;7.760;2022-09-14T15:17:30;6.18;;;1.80;;
30020;SDS011;16861;52.294;7.760;2022-09-14T15:19:56;4.70;;;1.48;;
30020;SDS011;16861;52.294;7.760;2022-09-14T15:22:23;6.28;;;1.90;;
30020;SDS011;16861;52.294;7.760;2022-09-14T15:24:50;5.13;;;1.70;;
30020;SDS011;16861;52.294;7.760;2022-09-14T15:27:17;7.22;;;1.50;;
30020;SDS011;16861;52.294;7.760;2022-09-14T15:29:43;3.22;;;1.20;;
30020;SDS011;16861;52.294;7.760;2022-09-14T15:32:10;5.25;;;1.42;;
30020;SDS011;16861;52.294;7.760;2022-09-14T15:34:37;4.63;;;1.67;;
30020;SDS011;16861;52.294;7.760;2022-09-14T15:37:03;3.17;;;1.33;;
30020;SDS011;16861;52.294;7.760;2022-09-14T15:39:30;3.95;;;1.50;;
30020;SDS011;16861;52.294;7.760;2022-09-14T15:41:57;3.75;;;1.60;;
30020;SDS011;16861;52.294;7.760;2022-09-14T15:44:24;4.05;;;1.38;;
30020;SDS011;16861;52.294;7.760;2022-09-14T15:46:50;2.90;;;1.38;;
30020;SDS011;16861;52.294;7.760;2022-09-14T15:49:22;3.47;;;1.52;;
30020;SDS011;16861;52.294;7.760;2022-09-14T15:51:50;9.52;;;2.75;;
30020;SDS011;16861;52.294;7.760;2022-09-14T15:54:19;3.38;;;1.15;;
30020;SDS011;16861;52.294;7.760;2022-09-14T15:56:51;3.78;;;1.20;;
30020;SDS011;16861;52.294;7.760;2022-09-14T15:59:20;6.03;;;1.42;;
30020;SDS011;16861;52.294;7.760;2022-09-14T16:01:47;4.45;;;1.30;;
30020;SDS011;16861;52.294;7.760;2022-09-14T16:04:14;4.30;;;1.70;;
30020;SDS011;16861;52.294;7.760;2022-09-14T16:06:41;2.90;;;1.17;;
30020;SDS011;16861;52.294;7.760;2022-09-14T16:09:08;3.95;;;1.38;;
30020;SDS011;16861;52.294;7.760;2022-09-14T16:11:36;7.10;;;1.50;;
30020;SDS011;16861;52.294;7.760;2022-09-14T16:14:04;5.15;;;1.55;;
30020;SDS011;16861;52.294;7.760;2022-09-14T16:16:32;4.40;;;1.77;;
30020;SDS011;16861;52.294;7.760;2022-09-14T16:19:06;4.28;;;1.50;;
30020;SDS011;16861;52.294;7.760;2022-09-14T16:21:38;5.63;;;1.67;;
30020;SDS011;16861;52.294;7.760;2022-09-14T16:24:07;2.95;;;1.27;;
30020;SDS011;16861;52.294;7.760;2022-09-14T16:26:36;3.10;;;1.45;;
30020;SDS011;16861;52.294;7.760;2022-09-14T16:29:04;2.13;;;0.93;;
30020;SDS011;16861;52.294;7.760;2022-09-14T16:31:35;2.85;;;1.27;;
30020;SDS011;16861;52.294;7.760;2022-09-14T16:34:03;4.47;;;1.27;;
30020;SDS011;16861;52.294;7.760;2022-09-14T16:36:34;3.17;;;1.30;;
30020;SDS011;16861;52.294;7.760;2022-09-14T16:39:04;5.18;;;1.40;;
30020;SDS011;16861;52.294;7.760;2022-09-14T16:41:36;4.32;;;1.40;;
30020;SDS011;16861;52.294;7.760;2022-09-14T16:44:04;2.55;;;1.00;;
30020;SDS011;16861;52.294;7.760;2022-09-14T16:46:31;4.85;;;1.42;;
30020;SDS011;16861;52.294;7.760;2022-09-14T16:48:59;4.22;;;1.50;;
30020;SDS011;16861;52.294;7.760;2022-09-14T16:51:26;4.22;;;1.30;;
30020;SDS011;16861;52.294;7.760;2022-09-14T16:53:54;3.00;;;1.38;;